BHS204 KFLL-MYNN
Flight info
| Callsign | BHS204 |
|---|---|
| Flight time | 0h 31m |
| Altitude | 21000 |
| Route | SNAPR2 RAJAY |
| Aircraft | B737/M-SDE2E3FGHIRWXY/LB1 |
Departure
| Time | 2026-05-04 07:13 |
|---|---|
| Airport | Fort Lauderdale Hollywood International Airport (KFLL) |
Arrival
| Time | 2026-05-04 07:44 |
|---|---|
| Airport | Lynden Pindling International Airport (MYNN) |
| Time | Latitude | Longitude | Altitude | Speed | Heading |
|---|---|---|---|---|---|
| 2026-05-04 07:01 | 26.07369 | -80.13799 | 15 ft | 0 kts | 246° |
| 2026-05-04 07:02 | 26.07370 | -80.13797 | 15 ft | 2 kts | 246° |
| 2026-05-04 07:03 | 26.07379 | -80.13772 | 15 ft | 4 kts | 256° |
| 2026-05-04 07:03 | 26.07380 | -80.13744 | 15 ft | 4 kts | 302° |
| 2026-05-04 07:03 | 26.07371 | -80.13736 | 17 ft | 0 kts | 1° |
| 2026-05-04 07:05 | 26.07394 | -80.13735 | 17 ft | 7 kts | 1° |
| 2026-05-04 07:06 | 26.07464 | -80.13775 | 15 ft | 7 kts | 281° |
| 2026-05-04 07:06 | 26.07469 | -80.13862 | 15 ft | 22 kts | 277° |
| 2026-05-04 07:06 | 26.07483 | -80.14052 | 15 ft | 27 kts | 269° |
| 2026-05-04 07:07 | 26.07482 | -80.14206 | 15 ft | 25 kts | 269° |
| 2026-05-04 07:08 | 26.07491 | -80.15273 | 15 ft | 20 kts | 272° |
| 2026-05-04 07:09 | 26.07494 | -80.15419 | 15 ft | 19 kts | 269° |
| 2026-05-04 07:09 | 26.07492 | -80.15563 | 15 ft | 18 kts | 269° |
| 2026-05-04 07:09 | 26.07491 | -80.15693 | 15 ft | 18 kts | 269° |
| 2026-05-04 07:09 | 26.07492 | -80.15827 | 15 ft | 17 kts | 271° |
| 2026-05-04 07:10 | 26.07494 | -80.15957 | 15 ft | 16 kts | 271° |
| 2026-05-04 07:10 | 26.07496 | -80.16081 | 15 ft | 16 kts | 271° |
| 2026-05-04 07:12 | 26.07683 | -80.16643 | 17 ft | 12 kts | 3° |
| 2026-05-04 07:12 | 26.07700 | -80.16581 | 17 ft | 14 kts | 91° |
| 2026-05-04 07:12 | 26.07697 | -80.16135 | 18 ft | 109 kts | 90° |
| 2026-05-04 07:12 | 26.07698 | -80.14968 | 215 ft | 177 kts | 89° |
| 2026-05-04 07:13 | 26.07682 | -80.13595 | 1432 ft | 181 kts | 89° |
| 2026-05-04 07:13 | 26.07708 | -80.12197 | 2574 ft | 193 kts | 89° |
| 2026-05-04 07:13 | 26.07738 | -80.10573 | 3060 ft | 229 kts | 89° |
| 2026-05-04 07:14 | 26.07826 | -80.02124 | 6394 ft | 291 kts | 90° |
| 2026-05-04 07:14 | 26.07836 | -79.99831 | 7363 ft | 299 kts | 90° |
| 2026-05-04 07:15 | 26.07818 | -79.97494 | 8369 ft | 306 kts | 91° |
| 2026-05-04 07:15 | 26.07789 | -79.95100 | 9368 ft | 313 kts | 90° |
| 2026-05-04 07:15 | 26.07759 | -79.92650 | 10302 ft | 320 kts | 91° |
| 2026-05-04 07:15 | 26.07731 | -79.90124 | 10792 ft | 344 kts | 91° |
| 2026-05-04 07:16 | 26.07701 | -79.87395 | 11442 ft | 358 kts | 91° |
| 2026-05-04 07:16 | 26.07670 | -79.84565 | 12291 ft | 366 kts | 91° |
| 2026-05-04 07:16 | 26.07478 | -79.81731 | 13170 ft | 371 kts | 102° |
| 2026-05-04 07:16 | 26.06894 | -79.78916 | 14035 ft | 375 kts | 107° |
| 2026-05-04 07:17 | 26.06222 | -79.76088 | 14811 ft | 381 kts | 108° |
| 2026-05-04 07:17 | 26.05554 | -79.73257 | 15626 ft | 386 kts | 108° |
| 2026-05-04 07:17 | 26.04929 | -79.70480 | 16398 ft | 391 kts | 108° |
| 2026-05-04 07:17 | 26.04283 | -79.67515 | 17176 ft | 397 kts | 108° |
| 2026-05-04 07:18 | 26.03625 | -79.64463 | 17970 ft | 403 kts | 108° |
| 2026-05-04 07:18 | 26.02947 | -79.61466 | 18679 ft | 407 kts | 109° |
| 2026-05-04 07:18 | 26.02462 | -79.59400 | 19152 ft | 410 kts | 109° |
| 2026-05-04 07:19 | 26.01590 | -79.55723 | 20134 ft | 410 kts | 109° |
| 2026-05-04 07:19 | 26.00860 | -79.52647 | 20720 ft | 410 kts | 109° |
| 2026-05-04 07:19 | 26.00298 | -79.50266 | 20960 ft | 406 kts | 109° |
| 2026-05-04 07:19 | 25.99579 | -79.47215 | 20996 ft | 410 kts | 109° |
| 2026-05-04 07:20 | 25.98859 | -79.44154 | 21002 ft | 408 kts | 109° |
| 2026-05-04 07:20 | 25.98131 | -79.41071 | 21024 ft | 422 kts | 109° |
| 2026-05-04 07:20 | 25.97359 | -79.37891 | 21024 ft | 440 kts | 111° |
| 2026-05-04 07:20 | 25.96347 | -79.34569 | 21018 ft | 454 kts | 115° |
| 2026-05-04 07:22 | 25.88027 | -79.11236 | 20989 ft | 500 kts | 115° |
| 2026-05-04 07:22 | 25.86781 | -79.07656 | 20995 ft | 500 kts | 115° |
| 2026-05-04 07:23 | 25.85529 | -79.04063 | 20990 ft | 500 kts | 115° |
| 2026-05-04 07:23 | 25.84271 | -79.00460 | 20992 ft | 500 kts | 115° |
| 2026-05-04 07:23 | 25.83011 | -78.96861 | 20994 ft | 501 kts | 115° |
| 2026-05-04 07:23 | 25.81745 | -78.93251 | 20997 ft | 501 kts | 115° |
| 2026-05-04 07:24 | 25.80484 | -78.89659 | 20997 ft | 501 kts | 115° |
| 2026-05-04 07:24 | 25.79220 | -78.86062 | 20996 ft | 500 kts | 115° |
| 2026-05-04 07:24 | 25.77936 | -78.82413 | 21000 ft | 500 kts | 114° |
| 2026-05-04 07:24 | 25.76687 | -78.78861 | 20999 ft | 500 kts | 114° |
| 2026-05-04 07:25 | 25.75420 | -78.75266 | 20999 ft | 500 kts | 114° |
| 2026-05-04 07:26 | 25.63329 | -78.54007 | 18706 ft | 432 kts | 128° |
| 2026-05-04 07:27 | 25.61638 | -78.51256 | 17889 ft | 431 kts | 128° |
| 2026-05-04 07:27 | 25.59956 | -78.48516 | 17000 ft | 429 kts | 128° |
| 2026-05-04 07:27 | 25.58278 | -78.45791 | 16152 ft | 427 kts | 129° |
| 2026-05-04 07:27 | 25.56348 | -78.43353 | 15294 ft | 418 kts | 142° |
| 2026-05-04 07:28 | 25.54148 | -78.41270 | 14499 ft | 414 kts | 144° |
| 2026-05-04 07:28 | 25.51974 | -78.39267 | 13700 ft | 411 kts | 144° |
| 2026-05-04 07:28 | 25.49757 | -78.37220 | 12798 ft | 408 kts | 143° |
| 2026-05-04 07:28 | 25.47596 | -78.35201 | 11933 ft | 405 kts | 143° |
| 2026-05-04 07:29 | 25.45469 | -78.33196 | 11357 ft | 395 kts | 143° |
| 2026-05-04 07:29 | 25.43451 | -78.31278 | 10942 ft | 382 kts | 142° |
| 2026-05-04 07:29 | 25.41476 | -78.29399 | 10584 ft | 369 kts | 143° |
| 2026-05-04 07:29 | 25.39585 | -78.27600 | 10264 ft | 356 kts | 143° |
| 2026-05-04 07:30 | 25.37716 | -78.25823 | 9977 ft | 344 kts | 143° |
| 2026-05-04 07:30 | 25.35951 | -78.24147 | 9677 ft | 334 kts | 143° |
| 2026-05-04 07:30 | 25.34190 | -78.22476 | 9364 ft | 323 kts | 143° |
| 2026-05-04 07:30 | 25.32529 | -78.20901 | 9142 ft | 313 kts | 143° |
| 2026-05-04 07:31 | 25.31035 | -78.19058 | 8868 ft | 309 kts | 121° |
| 2026-05-04 07:31 | 25.30362 | -78.16875 | 8663 ft | 307 kts | 99° |
| 2026-05-04 07:33 | 25.31724 | -78.00501 | 6810 ft | 304 kts | 85° |
| 2026-05-04 07:33 | 25.31933 | -77.98177 | 6441 ft | 302 kts | 85° |
| 2026-05-04 07:33 | 25.32139 | -77.95878 | 6048 ft | 300 kts | 85° |
| 2026-05-04 07:33 | 25.32343 | -77.93590 | 5655 ft | 298 kts | 85° |
| 2026-05-04 07:34 | 25.32545 | -77.91320 | 5264 ft | 296 kts | 85° |
| 2026-05-04 07:34 | 25.32744 | -77.89071 | 4880 ft | 293 kts | 86° |
| 2026-05-04 07:34 | 25.32846 | -77.86835 | 4462 ft | 286 kts | 99° |
| 2026-05-04 07:34 | 25.32253 | -77.84811 | 4064 ft | 271 kts | 122° |
| 2026-05-04 07:35 | 25.31261 | -77.83083 | 3686 ft | 261 kts | 126° |
| 2026-05-04 07:35 | 25.30255 | -77.81441 | 3294 ft | 254 kts | 127° |
| 2026-05-04 07:35 | 25.29271 | -77.79845 | 2900 ft | 248 kts | 127° |
| 2026-05-04 07:35 | 25.28312 | -77.78284 | 2514 ft | 243 kts | 126° |
| 2026-05-04 07:36 | 25.27555 | -77.77048 | 2254 ft | 238 kts | 126° |
| 2026-05-04 07:36 | 25.26647 | -77.75557 | 2033 ft | 226 kts | 127° |
| 2026-05-04 07:38 | 25.20850 | -77.66001 | 1996 ft | 214 kts | 126° |
| 2026-05-04 07:38 | 25.20017 | -77.64626 | 2006 ft | 213 kts | 126° |
| 2026-05-04 07:38 | 25.19201 | -77.63296 | 1992 ft | 206 kts | 129° |
| 2026-05-04 07:38 | 25.18286 | -77.62116 | 2009 ft | 201 kts | 136° |
| 2026-05-04 07:39 | 25.17315 | -77.61026 | 2018 ft | 203 kts | 137° |
| 2026-05-04 07:39 | 25.16312 | -77.59919 | 2023 ft | 204 kts | 137° |
| 2026-05-04 07:39 | 25.15337 | -77.58838 | 2014 ft | 190 kts | 137° |
| 2026-05-04 07:39 | 25.14449 | -77.57851 | 1997 ft | 173 kts | 137° |
| 2026-05-04 07:40 | 25.13633 | -77.56946 | 1904 ft | 160 kts | 137° |
| 2026-05-04 07:40 | 25.12875 | -77.56105 | 1828 ft | 152 kts | 137° |
| 2026-05-04 07:40 | 25.12128 | -77.55278 | 1788 ft | 151 kts | 138° |
| 2026-05-04 07:40 | 25.11399 | -77.54469 | 1752 ft | 146 kts | 138° |
| 2026-05-04 07:41 | 25.10676 | -77.53668 | 1621 ft | 146 kts | 138° |
| 2026-05-04 07:41 | 25.09953 | -77.52865 | 1414 ft | 147 kts | 137° |
| 2026-05-04 07:41 | 25.09234 | -77.52066 | 1223 ft | 146 kts | 137° |
| 2026-05-04 07:41 | 25.08561 | -77.51318 | 1019 ft | 132 kts | 138° |
| 2026-05-04 07:42 | 25.07991 | -77.50685 | 876 ft | 118 kts | 138° |
| 2026-05-04 07:42 | 25.07500 | -77.50142 | 743 ft | 121 kts | 137° |
| 2026-05-04 07:42 | 25.07141 | -77.49744 | 750 ft | 132 kts | 136° |
| 2026-05-04 07:42 | 25.06452 | -77.48978 | 434 ft | 145 kts | 134° |
| 2026-05-04 07:43 | 25.05741 | -77.48220 | 271 ft | 139 kts | 133° |
| 2026-05-04 07:43 | 25.05053 | -77.47432 | 71 ft | 143 kts | 132° |
| 2026-05-04 07:43 | 25.04384 | -77.46681 | 18 ft | 126 kts | 133° |
| 2026-05-04 07:43 | 25.03907 | -77.46160 | 18 ft | 75 kts | 134° |
| 2026-05-04 07:44 | 25.03798 | -77.45889 | 18 ft | 29 kts | 44° |
| 2026-05-04 07:44 | 25.03944 | -77.45932 | 16 ft | 27 kts | 319° |
| 2026-05-04 07:44 | 25.04071 | -77.46082 | 16 ft | 25 kts | 313° |
| 2026-05-04 07:44 | 25.04190 | -77.46217 | 16 ft | 24 kts | 315° |
| 2026-05-04 07:45 | 25.04301 | -77.46340 | 16 ft | 23 kts | 317° |
| 2026-05-04 07:45 | 25.04419 | -77.46458 | 16 ft | 22 kts | 317° |
| 2026-05-04 07:45 | 25.04529 | -77.46574 | 16 ft | 21 kts | 316° |
| 2026-05-04 07:45 | 25.04634 | -77.46692 | 17 ft | 21 kts | 311° |
| 2026-05-04 07:46 | 25.04730 | -77.46806 | 18 ft | 20 kts | 314° |
| 2026-05-04 07:46 | 25.04797 | -77.46882 | 19 ft | 20 kts | 314° |
| 2026-05-04 07:46 | 25.04916 | -77.46935 | 17 ft | 20 kts | 25° |
| 2026-05-04 07:46 | 25.04965 | -77.46847 | 16 ft | 0 kts | 76° |
| 2026-05-04 07:49 | 25.05081 | -77.46806 | 16 ft | 0 kts | 347° |